sensor_id;sensor_type;location;lat;lon;timestamp;pressure;altitude;pressure_sealevel;temperature;humidity
46614;BME280;32338;50.430;6.806;2023-03-19T00:02:06;66147.97;;;6.70;100.00
46614;BME280;32338;50.430;6.806;2023-03-19T00:04:34;66141.59;;;6.61;100.00
46614;BME280;32338;50.430;6.806;2023-03-19T00:07:02;66135.59;;;6.58;100.00
46614;BME280;32338;50.430;6.806;2023-03-19T00:09:31;66137.50;;;6.62;100.00
46614;BME280;32338;50.430;6.806;2023-03-19T00:12:01;66130.59;;;6.61;100.00
46614;BME280;32338;50.430;6.806;2023-03-19T00:14:29;66139.34;;;6.59;100.00
46614;BME280;32338;50.430;6.806;2023-03-19T00:16:55;66134.50;;;6.57;100.00
46614;BME280;32338;50.430;6.806;2023-03-19T00:19:25;66135.97;;;6.56;100.00
46614;BME280;32338;50.430;6.806;2023-03-19T00:21:52;66133.72;;;6.54;100.00
46614;BME280;32338;50.430;6.806;2023-03-19T00:24:20;66141.59;;;6.61;100.00
46614;BME280;32338;50.430;6.806;2023-03-19T00:26:48;66132.25;;;6.55;100.00
46614;BME280;32338;50.430;6.806;2023-03-19T00:29:15;66123.47;;;6.49;100.00
46614;BME280;32338;50.430;6.806;2023-03-19T00:31:43;66116.56;;;6.48;100.00
46614;BME280;32338;50.430;6.806;2023-03-19T00:34:10;66120.66;;;6.47;100.00
46614;BME280;32338;50.430;6.806;2023-03-19T00:36:38;66127.34;;;6.46;100.00
46614;BME280;32338;50.430;6.806;2023-03-19T00:39:05;66122.13;;;6.46;100.00
46614;BME280;32338;50.430;6.806;2023-03-19T00:41:35;66118.78;;;6.43;100.00
46614;BME280;32338;50.430;6.806;2023-03-19T00:44:04;66110.00;;;6.37;100.00
46614;BME280;32338;50.430;6.806;2023-03-19T00:46:33;66106.44;;;6.31;100.00
46614;BME280;32338;50.430;6.806;2023-03-19T00:49:00;66096.16;;;6.27;100.00
46614;BME280;32338;50.430;6.806;2023-03-19T00:51:27;66099.50;;;6.23;100.00
46614;BME280;32338;50.430;6.806;2023-03-19T00:53:53;66092.94;;;6.19;100.00
46614;BME280;32338;50.430;6.806;2023-03-19T00:56:20;66093.31;;;6.17;100.00
46614;BME280;32338;50.430;6.806;2023-03-19T00:58:48;66087.00;;;6.16;100.00
46614;BME280;32338;50.430;6.806;2023-03-19T01:01:16;66089.03;;;6.15;100.00
46614;BME280;32338;50.430;6.806;2023-03-19T01:03:43;66088.63;;;6.10;100.00
46614;BME280;32338;50.430;6.806;2023-03-19T01:06:11;66078.94;;;6.06;100.00
46614;BME280;32338;50.430;6.806;2023-03-19T01:08:38;66073.53;;;6.04;100.00
46614;BME280;32338;50.430;6.806;2023-03-19T01:11:06;66073.31;;;6.01;100.00
46614;BME280;32338;50.430;6.806;2023-03-19T01:13:34;66066.19;;;5.97;100.00
46614;BME280;32338;50.430;6.806;2023-03-19T01:16:03;66065.06;;;5.96;100.00
46614;BME280;32338;50.430;6.806;2023-03-19T01:18:30;66064.66;;;5.91;100.00
46614;BME280;32338;50.430;6.806;2023-03-19T01:20:57;66054.97;;;5.87;100.00
46614;BME280;32338;50.430;6.806;2023-03-19T01:23:24;66053.66;;;5.83;100.00
46614;BME280;32338;50.430;6.806;2023-03-19T01:25:50;66049.72;;;5.79;100.00
46614;BME280;32338;50.430;6.806;2023-03-19T01:28:17;66046.16;;;5.74;100.00
46614;BME280;32338;50.430;6.806;2023-03-19T01:30:44;66042.78;;;5.71;100.00
46614;BME280;32338;50.430;6.806;2023-03-19T01:33:13;66039.06;;;5.69;100.00
46614;BME280;32338;50.430;6.806;2023-03-19T01:35:40;66040.56;;;5.68;100.00
46614;BME280;32338;50.430;6.806;2023-03-19T01:38:08;66039.78;;;5.65;100.00
46614;BME280;32338;50.430;6.806;2023-03-19T01:40:35;66032.91;;;5.64;100.00
46614;BME280;32338;50.430;6.806;2023-03-19T01:43:13;66031.00;;;5.60;100.00
46614;BME280;32338;50.430;6.806;2023-03-19T01:45:42;66021.31;;;5.56;100.00
46614;BME280;32338;50.430;6.806;2023-03-19T01:48:16;66025.97;;;5.55;100.00
46614;BME280;32338;50.430;6.806;2023-03-19T01:50:45;66024.47;;;5.56;100.00
46614;BME280;32338;50.430;6.806;2023-03-19T01:53:16;66018.31;;;5.50;100.00
46614;BME280;32338;50.430;6.806;2023-03-19T01:55:43;66016.97;;;5.47;100.00
46614;BME280;32338;50.430;6.806;2023-03-19T01:58:10;66012.69;;;5.45;100.00
46614;BME280;32338;50.430;6.806;2023-03-19T02:00:37;66010.81;;;5.41;100.00
46614;BME280;32338;50.430;6.806;2023-03-19T02:03:05;66013.81;;;5.46;100.00
46614;BME280;32338;50.430;6.806;2023-03-19T02:05:33;66011.03;;;5.44;100.00
46614;BME280;32338;50.430;6.806;2023-03-19T02:08:04;66015.66;;;5.43;100.00
46614;BME280;32338;50.430;6.806;2023-03-19T02:10:32;66015.66;;;5.43;100.00
46614;BME280;32338;50.430;6.806;2023-03-19T02:12:59;66017.56;;;5.47;100.00
46614;BME280;32338;50.430;6.806;2023-03-19T02:15:26;66018.88;;;5.51;100.00
46614;BME280;32338;50.430;6.806;2023-03-19T02:17:53;66017.19;;;5.49;100.00
46614;BME280;32338;50.430;6.806;2023-03-19T02:20:24;66023.16;;;5.52;100.00
46614;BME280;32338;50.430;6.806;2023-03-19T02:23:04;66023.16;;;5.52;100.00
46614;BME280;32338;50.430;6.806;2023-03-19T02:25:40;66025.41;;;5.55;100.00
46614;BME280;32338;50.430;6.806;2023-03-19T02:28:15;66026.16;;;5.58;100.00
46614;BME280;32338;50.430;6.806;2023-03-19T02:30:43;66037.38;;;5.68;100.00
46614;BME280;32338;50.430;6.806;2023-03-19T02:33:11;66037.59;;;5.71;100.00
46614;BME280;32338;50.430;6.806;2023-03-19T02:35:39;66044.47;;;5.72;100.00
46614;BME280;32338;50.430;6.806;2023-03-19T02:38:06;66053.25;;;5.78;100.00
46614;BME280;32338;50.430;6.806;2023-03-19T02:40:37;66049.72;;;5.79;100.00
46614;BME280;32338;50.430;6.806;2023-03-19T02:43:05;66046.72;;;5.74;100.00
46614;BME280;32338;50.430;6.806;2023-03-19T02:45:33;66047.84;;;5.75;100.00
46614;BME280;32338;50.430;6.806;2023-03-19T02:48:01;66045.22;;;5.75;100.00
46614;BME280;32338;50.430;6.806;2023-03-19T02:50:28;66047.84;;;5.75;100.00
46614;BME280;32338;50.430;6.806;2023-03-19T02:52:54;66049.38;;;5.81;100.00
46614;BME280;32338;50.430;6.806;2023-03-19T02:55:21;66063.97;;;5.95;100.00
46614;BME280;32338;50.430;6.806;2023-03-19T02:57:48;66066.56;;;5.95;100.00
46614;BME280;32338;50.430;6.806;2023-03-19T03:00:15;66067.91;;;5.98;100.00
46614;BME280;32338;50.430;6.806;2023-03-19T03:02:44;66065.06;;;5.96;100.00
46614;BME280;32338;50.430;6.806;2023-03-19T03:05:11;66070.28;;;5.96;100.00
46614;BME280;32338;50.430;6.806;2023-03-19T03:07:38;66080.56;;;6.00;100.00
46614;BME280;32338;50.430;6.806;2023-03-19T03:10:08;66079.47;;;6.07;100.00
46614;BME280;32338;50.430;6.806;2023-03-19T03:12:35;66098.94;;;6.22;100.00
46614;BME280;32338;50.430;6.806;2023-03-19T03:15:03;66105.50;;;6.33;100.00
46614;BME280;32338;50.430;6.806;2023-03-19T03:17:30;66119.91;;;6.44;100.00
46614;BME280;32338;50.430;6.806;2023-03-19T03:19:58;66113.16;;;6.38;100.00
46614;BME280;32338;50.430;6.806;2023-03-19T03:22:25;66117.44;;;6.39;100.00
46614;BME280;32338;50.430;6.806;2023-03-19T03:24:52;66112.97;;;6.35;100.00
46614;BME280;32338;50.430;6.806;2023-03-19T03:27:18;66107.97;;;6.38;100.00
46614;BME280;32338;50.430;6.806;2023-03-19T03:29:45;66107.56;;;6.32;100.00
46614;BME280;32338;50.430;6.806;2023-03-19T03:32:13;66104.75;;;6.30;100.00
46614;BME280;32338;50.430;6.806;2023-03-19T03:34:40;66105.09;;;6.28;100.00
46614;BME280;32338;50.430;6.806;2023-03-19T03:37:08;66111.84;;;6.34;100.00
46614;BME280;32338;50.430;6.806;2023-03-19T03:39:35;66100.81;;;6.26;100.00
46614;BME280;32338;50.430;6.806;2023-03-19T03:42:02;66101.38;;;6.27;100.00
46614;BME280;32338;50.430;6.806;2023-03-19T03:44:29;66099.50;;;6.23;100.00
46614;BME280;32338;50.430;6.806;2023-03-19T03:46:56;66106.22;;;6.29;100.00
46614;BME280;32338;50.430;6.806;2023-03-19T03:49:22;66100.03;;;6.23;100.00
46614;BME280;32338;50.430;6.806;2023-03-19T03:51:49;66096.53;;;6.25;100.00
46614;BME280;32338;50.430;6.806;2023-03-19T03:54:18;66096.69;;;6.20;100.00
46614;BME280;32338;50.430;6.806;2023-03-19T03:56:45;66091.63;;;6.15;100.00
46614;BME280;32338;50.430;6.806;2023-03-19T03:59:14;66081.94;;;6.11;100.00
46614;BME280;32338;50.430;6.806;2023-03-19T04:01:41;66082.84;;;6.10;100.00
46614;BME280;32338;50.430;6.806;2023-03-19T04:04:08;66081.16;;;6.08;100.00
46614;BME280;32338;50.430;6.806;2023-03-19T04:06:35;66078.94;;;6.06;100.00
46614;BME280;32338;50.430;6.806;2023-03-19T04:09:02;66085.47;;;6.10;100.00
46614;BME280;32338;50.430;6.806;2023-03-19T04:11:30;66084.34;;;6.09;100.00
46614;BME280;32338;50.430;6.806;2023-03-19T04:13:57;66080.41;;;6.05;100.00
46614;BME280;32338;50.430;6.806;2023-03-19T04:16:24;66076.13;;;6.04;100.00
46614;BME280;32338;50.430;6.806;2023-03-19T04:18:52;66080.41;;;6.05;100.00
46614;BME280;32338;50.430;6.806;2023-03-19T04:21:19;66077.81;;;6.05;100.00
46614;BME280;32338;50.430;6.806;2023-03-19T04:23:46;66082.84;;;6.10;100.00
46614;BME280;32338;50.430;6.806;2023-03-19T04:26:13;66084.88;;;6.09;100.00
46614;BME280;32338;50.430;6.806;2023-03-19T04:28:41;66081.94;;;6.11;100.00
46614;BME280;32338;50.430;6.806;2023-03-19T04:31:08;66089.81;;;6.19;100.00
46614;BME280;32338;50.430;6.806;2023-03-19T04:33:35;66094.28;;;6.23;100.00
46614;BME280;32338;50.430;6.806;2023-03-19T04:36:02;66108.09;;;6.33;100.00
46614;BME280;32338;50.430;6.806;2023-03-19T04:38:29;66117.44;;;6.39;100.00
46614;BME280;32338;50.430;6.806;2023-03-19T04:40:56;66109.78;;;6.35;100.00
46614;BME280;32338;50.430;6.806;2023-03-19T04:43:23;66110.91;;;6.36;100.00
46614;BME280;32338;50.430;6.806;2023-03-19T04:45:51;66107.75;;;6.35;100.00
46614;BME280;32338;50.430;6.806;2023-03-19T04:48:18;66112.97;;;6.35;100.00
46614;BME280;32338;50.430;6.806;2023-03-19T04:50:45;66113.31;;;6.33;100.00
46614;BME280;32338;50.430;6.806;2023-03-19T04:53:16;66108.09;;;6.33;100.00
46614;BME280;32338;50.430;6.806;2023-03-19T04:55:43;66113.31;;;6.33;100.00
46614;BME280;32338;50.430;6.806;2023-03-19T04:58:09;66126.78;;;6.45;100.00
46614;BME280;32338;50.430;6.806;2023-03-19T05:00:36;66118.56;;;6.40;100.00
46614;BME280;32338;50.430;6.806;2023-03-19T05:03:04;66115.41;;;6.40;100.00
46614;BME280;32338;50.430;6.806;2023-03-19T05:05:31;66113.38;;;6.40;100.00
46614;BME280;32338;50.430;6.806;2023-03-19T05:07:58;66118.56;;;6.40;100.00
46614;BME280;32338;50.430;6.806;2023-03-19T05:10:25;66121.19;;;6.40;100.00
46614;BME280;32338;50.430;6.806;2023-03-19T05:12:52;66117.09;;;6.41;100.00
46614;BME280;32338;50.430;6.806;2023-03-19T05:15:18;66116.72;;;6.43;100.00
46614;BME280;32338;50.430;6.806;2023-03-19T05:17:45;66113.38;;;6.40;100.00
46614;BME280;32338;50.430;6.806;2023-03-19T05:20:14;66122.91;;;6.49;100.00
46614;BME280;32338;50.430;6.806;2023-03-19T05:22:42;66126.44;;;6.47;100.00
46614;BME280;32338;50.430;6.806;2023-03-19T05:25:08;66134.13;;;6.59;100.00
46614;BME280;32338;50.430;6.806;2023-03-19T05:27:35;66134.13;;;6.59;100.00
46614;BME280;32338;50.430;6.806;2023-03-19T05:30:03;66150.22;;;6.72;100.00
46614;BME280;32338;50.430;6.806;2023-03-19T05:32:30;66137.88;;;6.60;100.00
46614;BME280;32338;50.430;6.806;2023-03-19T05:34:56;66136.94;;;6.62;100.00
46614;BME280;32338;50.430;6.806;2023-03-19T05:37:25;66146.09;;;6.65;100.00
46614;BME280;32338;50.430;6.806;2023-03-19T05:39:52;66132.44;;;6.58;100.00
46614;BME280;32338;50.430;6.806;2023-03-19T05:42:18;66143.81;;;6.63;100.00
46614;BME280;32338;50.430;6.806;2023-03-19T05:44:45;66138.41;;;6.61;100.00
46614;BME280;32338;50.430;6.806;2023-03-19T05:47:12;66139.00;;;6.61;100.00
46614;BME280;32338;50.430;6.806;2023-03-19T05:49:39;66145.53;;;6.65;100.00
46614;BME280;32338;50.430;6.806;2023-03-19T05:52:06;66141.22;;;6.63;100.00
46614;BME280;32338;50.430;6.806;2023-03-19T05:54:34;66149.66;;;6.71;100.00
46614;BME280;32338;50.430;6.806;2023-03-19T05:57:01;66146.28;;;6.68;100.00
46614;BME280;32338;50.430;6.806;2023-03-19T05:59:28;66147.41;;;6.69;100.00
46614;BME280;32338;50.430;6.806;2023-03-19T06:01:55;66167.78;;;6.83;100.00
46614;BME280;32338;50.430;6.806;2023-03-19T06:04:25;66157.50;;;6.78;100.00
46614;BME280;32338;50.430;6.806;2023-03-19T06:06:51;66155.28;;;6.76;100.00
46614;BME280;32338;50.430;6.806;2023-03-19T06:09:18;66160.31;;;6.81;100.00
46614;BME280;32338;50.430;6.806;2023-03-19T06:11:48;66157.50;;;6.78;100.00
46614;BME280;32338;50.430;6.806;2023-03-19T06:14:15;66152.66;;;6.76;100.00
46614;BME280;32338;50.430;6.806;2023-03-19T06:16:42;66156.03;;;6.79;100.00
46614;BME280;32338;50.430;6.806;2023-03-19T06:19:09;66153.78;;;6.77;100.00
46614;BME280;32338;50.430;6.806;2023-03-19T06:21:36;66167.97;;;6.86;100.00
46614;BME280;32338;50.430;6.806;2023-03-19T06:24:02;66156.03;;;6.79;100.00
46614;BME280;32338;50.430;6.806;2023-03-19T06:26:29;66163.69;;;6.84;100.00
46614;BME280;32338;50.430;6.806;2023-03-19T06:28:57;66164.63;;;6.82;100.00
46614;BME280;32338;50.430;6.806;2023-03-19T06:31:24;66167.78;;;6.83;100.00
46614;BME280;32338;50.430;6.806;2023-03-19T06:33:51;66165.94;;;6.86;100.00
46614;BME280;32338;50.430;6.806;2023-03-19T06:36:18;66163.28;;;6.79;100.00
46614;BME280;32338;50.430;6.806;2023-03-19T06:38:45;66159.00;;;6.77;100.00
46614;BME280;32338;50.430;6.806;2023-03-19T06:41:12;66161.25;;;6.79;100.00
46614;BME280;32338;50.430;6.806;2023-03-19T06:43:38;66163.84;;;6.79;100.00
46614;BME280;32338;50.430;6.806;2023-03-19T06:46:08;66164.78;;;6.78;100.00
46614;BME280;32338;50.430;6.806;2023-03-19T06:48:35;66152.47;;;6.74;100.00
46614;BME280;32338;50.430;6.806;2023-03-19T06:51:02;66155.63;;;6.74;100.00
46614;BME280;32338;50.430;6.806;2023-03-19T06:53:29;66166.84;;;6.85;100.00
46614;BME280;32338;50.430;6.806;2023-03-19T06:55:55;66172.13;;;6.92;100.00
46614;BME280;32338;50.430;6.806;2023-03-19T06:58:22;66171.34;;;6.89;100.00
46614;BME280;32338;50.430;6.806;2023-03-19T07:00:49;66170.22;;;6.88;100.00
46614;BME280;32338;50.430;6.806;2023-03-19T07:03:17;66172.69;;;6.92;100.00
46614;BME280;32338;50.430;6.806;2023-03-19T07:05:44;66176.41;;;6.93;100.00
46614;BME280;32338;50.430;6.806;2023-03-19T07:08:10;66182.59;;;6.99;100.00
46614;BME280;32338;50.430;6.806;2023-03-19T07:10:37;66185.25;;;7.06;100.00
46614;BME280;32338;50.430;6.806;2023-03-19T07:13:04;66186.72;;;7.05;100.00
46614;BME280;32338;50.430;6.806;2023-03-19T07:15:31;66185.03;;;7.04;100.00
46614;BME280;32338;50.430;6.806;2023-03-19T07:17:58;66192.88;;;7.11;100.00
46614;BME280;32338;50.430;6.806;2023-03-19T07:20:26;66208.06;;;7.25;100.00
46614;BME280;32338;50.430;6.806;2023-03-19T07:22:53;66197.59;;;7.18;100.00
46614;BME280;32338;50.430;6.806;2023-03-19T07:25:20;66211.03;;;7.23;100.00
46614;BME280;32338;50.430;6.806;2023-03-19T07:27:47;66209.75;;;7.26;100.00
46614;BME280;32338;50.430;6.806;2023-03-19T07:30:14;66198.34;;;7.21;100.00
46614;BME280;32338;50.430;6.806;2023-03-19T07:32:41;66203.78;;;7.23;100.00
46614;BME280;32338;50.430;6.806;2023-03-19T07:35:08;66204.13;;;7.21;100.00
46614;BME280;32338;50.430;6.806;2023-03-19T07:37:37;66208.63;;;7.25;100.00
46614;BME280;32338;50.430;6.806;2023-03-19T07:40:05;66196.81;;;7.14;100.00
46614;BME280;32338;50.430;6.806;2023-03-19T07:42:34;66193.09;;;7.13;100.00
46614;BME280;32338;50.430;6.806;2023-03-19T07:45:02;66203.38;;;7.18;100.00
46614;BME280;32338;50.430;6.806;2023-03-19T07:47:30;66193.81;;;7.09;100.00
46614;BME280;32338;50.430;6.806;2023-03-19T07:49:57;66188.41;;;7.07;100.00
46614;BME280;32338;50.430;6.806;2023-03-19T07:52:24;66194.41;;;7.10;100.00
46614;BME280;32338;50.430;6.806;2023-03-19T07:54:53;66190.47;;;7.06;100.00
46614;BME280;32338;50.430;6.806;2023-03-19T07:57:24;66185.59;;;7.04;100.00
46614;BME280;32338;50.430;6.806;2023-03-19T07:59:51;66191.22;;;7.09;100.00
46614;BME280;32338;50.430;6.806;2023-03-19T08:02:18;66196.06;;;7.11;100.00
46614;BME280;32338;50.430;6.806;2023-03-19T08:04:45;66192.69;;;7.08;100.00
46614;BME280;32338;50.430;6.806;2023-03-19T08:07:12;66194.22;;;7.14;100.00
46614;BME280;32338;50.430;6.806;2023-03-19T08:09:41;66197.41;;;7.15;100.00
46614;BME280;32338;50.430;6.806;2023-03-19T08:12:10;66212.00;;;7.28;100.00
46614;BME280;32338;50.430;6.806;2023-03-19T08:14:39;66209.56;;;7.24;100.00
46614;BME280;32338;50.430;6.806;2023-03-19T08:17:06;66209.19;;;7.26;100.00
46614;BME280;32338;50.430;6.806;2023-03-19T08:19:33;66237.09;;;7.49;100.00
46614;BME280;32338;50.430;6.806;2023-03-19T08:22:01;66240.25;;;7.50;100.00
46614;BME280;32338;50.430;6.806;2023-03-19T08:24:28;66230.94;;;7.51;100.00
46614;BME280;32338;50.430;6.806;2023-03-19T08:26:55;66233.16;;;7.45;100.00
46614;BME280;32338;50.430;6.806;2023-03-19T08:29:23;66244.22;;;7.60;100.00
46614;BME280;32338;50.430;6.806;2023-03-19T08:31:51;66249.44;;;7.60;100.00
46614;BME280;32338;50.430;6.806;2023-03-19T08:34:18;66258.06;;;7.71;100.00
46614;BME280;32338;50.430;6.806;2023-03-19T08:36:46;66271.75;;;7.86;100.00
46614;BME280;32338;50.430;6.806;2023-03-19T08:39:13;66284.66;;;7.90;100.00
46614;BME280;32338;50.430;6.806;2023-03-19T08:41:40;66288.78;;;7.97;100.00
46614;BME280;32338;50.430;6.806;2023-03-19T08:44:07;66299.69;;;8.09;100.00
46614;BME280;32338;50.430;6.806;2023-03-19T08:46:36;66315.59;;;8.26;100.00
46614;BME280;32338;50.430;6.806;2023-03-19T08:49:03;66309.03;;;8.15;100.00
46614;BME280;32338;50.430;6.806;2023-03-19T08:51:29;66309.59;;;8.16;100.00
46614;BME280;32338;50.430;6.806;2023-03-19T08:53:56;66292.34;;;8.02;100.00
46614;BME280;32338;50.430;6.806;2023-03-19T08:56:23;66305.09;;;8.11;100.00
46614;BME280;32338;50.430;6.806;2023-03-19T08:58:50;66310.91;;;8.19;100.00
46614;BME280;32338;50.430;6.806;2023-03-19T09:01:17;66323.28;;;8.31;100.00
46614;BME280;32338;50.430;6.806;2023-03-19T09:03:48;66319.72;;;8.25;100.00
46614;BME280;32338;50.430;6.806;2023-03-19T09:06:17;66316.00;;;8.24;100.00
46614;BME280;32338;50.430;6.806;2023-03-19T09:08:44;66319.72;;;8.25;100.00
46614;BME280;32338;50.430;6.806;2023-03-19T09:11:11;66312.97;;;8.19;100.00
46614;BME280;32338;50.430;6.806;2023-03-19T09:13:38;66309.03;;;8.15;100.00
46614;BME280;32338;50.430;6.806;2023-03-19T09:16:05;66304.72;;;8.14;100.00
46614;BME280;32338;50.430;6.806;2023-03-19T09:18:33;66305.66;;;8.12;100.00
46614;BME280;32338;50.430;6.806;2023-03-19T09:21:01;66313.19;;;8.21;100.00
46614;BME280;32338;50.430;6.806;2023-03-19T09:23:31;66339.19;;;8.40;100.00
46614;BME280;32338;50.430;6.806;2023-03-19T09:25:58;66343.75;;;8.52;100.00
46614;BME280;32338;50.430;6.806;2023-03-19T09:28:25;66341.31;;;8.47;100.00
46614;BME280;32338;50.430;6.806;2023-03-19T09:30:52;66346.94;;;8.52;100.00
46614;BME280;32338;50.430;6.806;2023-03-19T09:33:19;66357.41;;;8.59;100.00
46614;BME280;32338;50.430;6.806;2023-03-19T09:35:50;66368.84;;;8.72;100.00
46614;BME280;32338;50.430;6.806;2023-03-19T09:38:21;66383.69;;;8.88;100.00
46614;BME280;32338;50.430;6.806;2023-03-19T09:41:00;66415.38;;;9.13;100.00
46614;BME280;32338;50.430;6.806;2023-03-19T09:43:55;66415.38;;;9.13;100.00
46614;BME280;32338;50.430;6.806;2023-03-19T09:46:28;66416.13;;;9.16;100.00
46614;BME280;32338;50.430;6.806;2023-03-19T09:49:01;66401.50;;;9.02;100.00
46614;BME280;32338;50.430;6.806;2023-03-19T09:51:34;66397.94;;;8.97;100.00
46614;BME280;32338;50.430;6.806;2023-03-19T09:54:18;66384.25;;;8.89;100.00
46614;BME280;32338;50.430;6.806;2023-03-19T09:56:48;66395.88;;;8.97;100.00
46614;BME280;32338;50.430;6.806;2023-03-19T09:59:14;66395.66;;;8.95;100.00
46614;BME280;32338;50.430;6.806;2023-03-19T10:01:46;66386.50;;;8.91;100.00
46614;BME280;32338;50.430;6.806;2023-03-19T10:04:31;66391.00;;;8.95;100.00
46614;BME280;32338;50.430;6.806;2023-03-19T10:07:11;66402.44;;;9.01;100.00
46614;BME280;32338;50.430;6.806;2023-03-19T10:09:51;66403.75;;;9.04;100.00
46614;BME280;32338;50.430;6.806;2023-03-19T10:12:32;66391.72;;;8.91;100.00
46614;BME280;32338;50.430;6.806;2023-03-19T10:15:14;66400.38;;;9.01;100.00
46614;BME280;32338;50.430;6.806;2023-03-19T10:17:51;66389.69;;;8.91;100.00
46614;BME280;32338;50.430;6.806;2023-03-19T10:20:28;66387.78;;;8.87;100.00
46614;BME280;32338;50.430;6.806;2023-03-19T10:23:01;66395.88;;;8.97;100.00
46614;BME280;32338;50.430;6.806;2023-03-19T10:25:31;66393.63;;;8.95;100.00
46614;BME280;32338;50.430;6.806;2023-03-19T10:28:00;66394.91;;;8.91;100.00
46614;BME280;32338;50.430;6.806;2023-03-19T10:30:35;66379.34;;;8.80;100.00
46614;BME280;32338;50.430;6.806;2023-03-19T10:33:12;66368.66;;;8.70;100.00
46614;BME280;32338;50.430;6.806;2023-03-19T10:35:43;66373.56;;;8.79;100.00
46614;BME280;32338;50.430;6.806;2023-03-19T10:38:20;66386.88;;;8.89;100.00
46614;BME280;32338;50.430;6.806;2023-03-19T10:40:56;66379.56;;;8.82;100.00
46614;BME280;32338;50.430;6.806;2023-03-19T10:43:29;66384.25;;;8.89;100.00
46614;BME280;32338;50.430;6.806;2023-03-19T10:45:58;66394.75;;;8.96;100.00
46614;BME280;32338;50.430;6.806;2023-03-19T10:48:25;66417.25;;;9.17;100.00
46614;BME280;32338;50.430;6.806;2023-03-19T10:50:56;66418.38;;;9.18;100.00
46614;BME280;32338;50.430;6.806;2023-03-19T10:53:31;66412.00;;;9.09;100.00
46614;BME280;32338;50.430;6.806;2023-03-19T10:56:02;66404.88;;;9.05;100.00
46614;BME280;32338;50.430;6.806;2023-03-19T10:58:31;66428.31;;;9.24;100.00
46614;BME280;32338;50.430;6.806;2023-03-19T11:01:03;66418.59;;;9.20;100.00
46614;BME280;32338;50.430;6.806;2023-03-19T11:03:32;66426.06;;;9.22;100.00
46614;BME280;32338;50.430;6.806;2023-03-19T11:06:04;66461.72;;;9.57;100.00
46614;BME280;32338;50.430;6.806;2023-03-19T11:08:34;66479.53;;;9.71;100.00
46614;BME280;32338;50.430;6.806;2023-03-19T11:11:03;66482.91;;;9.74;100.00
46614;BME280;32338;50.430;6.806;2023-03-19T11:13:33;66476.94;;;9.71;100.00
46614;BME280;32338;50.430;6.806;2023-03-19T11:16:00;66473.19;;;9.70;100.00
46614;BME280;32338;50.430;6.806;2023-03-19T11:18:29;66450.66;;;9.50;100.00
46614;BME280;32338;50.430;6.806;2023-03-19T11:20:58;66446.16;;;9.46;100.00
46614;BME280;32338;50.430;6.806;2023-03-19T11:23:27;66444.47;;;9.44;100.00
46614;BME280;32338;50.430;6.806;2023-03-19T11:26:01;66428.88;;;9.25;100.00
46614;BME280;32338;50.430;6.806;2023-03-19T11:28:30;66429.06;;;9.28;100.00
46614;BME280;32338;50.430;6.806;2023-03-19T11:31:02;66444.44;;;9.37;100.00
46614;BME280;32338;50.430;6.806;2023-03-19T11:34:01;66454.75;;;9.49;100.00
46614;BME280;32338;50.430;6.806;2023-03-19T11:36:35;66469.03;;;9.64;100.00
46614;BME280;32338;50.430;6.806;2023-03-19T11:39:20;66500.78;;;9.96;100.00
46614;BME280;32338;50.430;6.806;2023-03-19T11:42:24;66511.09;;;10.00;100.00
46614;BME280;32338;50.430;6.806;2023-03-19T11:45:03;66502.44;;;9.97;100.00
46614;BME280;32338;50.430;6.806;2023-03-19T11:47:37;66514.09;;;10.05;100.00
46614;BME280;32338;50.430;6.806;2023-03-19T11:50:14;66519.72;;;10.11;100.00
46614;BME280;32338;50.430;6.806;2023-03-19T11:53:00;66531.34;;;10.19;100.00
46614;BME280;32338;50.430;6.806;2023-03-19T11:55:33;66518.03;;;10.09;100.00
46614;BME280;32338;50.430;6.806;2023-03-19T12:01:10;66491.56;;;9.85;100.00
46614;BME280;32338;50.430;6.806;2023-03-19T12:04:07;66492.69;;;9.86;100.00
46614;BME280;32338;50.430;6.806;2023-03-19T12:06:44;66484.41;;;9.73;100.00
46614;BME280;32338;50.430;6.806;2023-03-19T12:09:20;66477.84;;;9.70;100.00
46614;BME280;32338;50.430;6.806;2023-03-19T12:11:52;66475.59;;;9.68;100.00
46614;BME280;32338;50.430;6.806;2023-03-19T12:14:30;66456.06;;;9.45;100.00
46614;BME280;32338;50.430;6.806;2023-03-19T12:17:20;66419.91;;;9.24;100.00
46614;BME280;32338;50.430;6.806;2023-03-19T12:20:02;66402.63;;;9.03;100.00
46614;BME280;32338;50.430;6.806;2023-03-19T12:22:42;66374.28;;;8.75;100.00
46614;BME280;32338;50.430;6.806;2023-03-19T12:25:25;66358.53;;;8.60;100.00
46614;BME280;32338;50.430;6.806;2023-03-19T12:27:56;66342.78;;;8.46;100.00
46614;BME280;32338;50.430;6.806;2023-03-19T12:30:32;66329.09;;;8.38;100.00
46614;BME280;32338;50.430;6.806;2023-03-19T12:33:23;66332.84;;;8.39;100.00
46614;BME280;32338;50.430;6.806;2023-03-19T12:35:55;66324.97;;;8.32;100.00
46614;BME280;32338;50.430;6.806;2023-03-19T12:38:26;66345.25;;;8.51;100.00
46614;BME280;32338;50.430;6.806;2023-03-19T12:40:59;66362.69;;;8.67;100.00
46614;BME280;32338;50.430;6.806;2023-03-19T12:43:34;66362.84;;;8.62;100.00
46614;BME280;32338;50.430;6.806;2023-03-19T12:46:06;66374.47;;;8.77;100.00
46614;BME280;32338;50.430;6.806;2023-03-19T12:48:40;66367.75;;;8.71;100.00
46614;BME280;32338;50.430;6.806;2023-03-19T12:51:11;66373.72;;;8.74;100.00
46614;BME280;32338;50.430;6.806;2023-03-19T12:53:44;66377.31;;;8.80;100.00
46614;BME280;32338;50.430;6.806;2023-03-19T12:56:17;66385.19;;;8.87;100.00
46614;BME280;32338;50.430;6.806;2023-03-19T12:58:51;66395.66;;;8.95;100.00
46614;BME280;32338;50.430;6.806;2023-03-19T13:01:23;66416.47;;;9.14;100.00
46614;BME280;32338;50.430;6.806;2023-03-19T13:03:57;66440.69;;;9.36;100.00
46614;BME280;32338;50.430;6.806;2023-03-19T13:06:27;66444.84;;;9.42;100.00
46614;BME280;32338;50.430;6.806;2023-03-19T13:09:01;66483.88;;;9.80;100.00
46614;BME280;32338;50.430;6.806;2023-03-19T13:11:35;66485.94;;;9.80;100.00
46614;BME280;32338;50.430;6.806;2023-03-19T13:14:11;66452.13;;;9.49;100.00
46614;BME280;32338;50.430;6.806;2023-03-19T13:16:45;66463.78;;;9.57;100.00